createdAt,value
2022-08-14T00:01:24.062Z,22.14
2022-08-14T00:03:50.981Z,22.15
2022-08-14T00:06:28.475Z,22.08
2022-08-14T00:08:59.313Z,22.08
2022-08-14T00:11:28.800Z,22.02
2022-08-14T00:13:58.466Z,21.97
2022-08-14T00:16:40.816Z,21.96
2022-08-14T00:19:18.660Z,21.91
2022-08-14T00:21:46.978Z,21.86
2022-08-14T00:24:13.667Z,21.84
2022-08-14T00:26:50.002Z,21.79
2022-08-14T00:29:21.302Z,21.79
2022-08-14T00:31:54.535Z,21.76
2022-08-14T00:34:36.777Z,21.70
2022-08-14T00:37:08.998Z,21.63
2022-08-14T00:39:35.489Z,21.61
2022-08-14T00:42:03.409Z,21.53
2022-08-14T00:44:32.937Z,21.54
2022-08-14T00:47:02.545Z,21.53
2022-08-14T00:49:30.052Z,21.50
2022-08-14T00:51:57.002Z,21.47
2022-08-14T00:54:25.064Z,21.48
2022-08-14T00:56:55.662Z,21.47
2022-08-14T00:59:24.955Z,21.40
2022-08-14T01:01:53.882Z,21.39
2022-08-14T01:04:37.963Z,21.40
2022-08-14T01:07:10.042Z,21.40
2022-08-14T01:09:37.589Z,21.45
2022-08-14T01:12:06.400Z,21.47
2022-08-14T01:14:34.739Z,21.49
2022-08-14T01:20:01.930Z,21.44
2022-08-14T01:22:31.518Z,21.42
2022-08-14T01:24:58.109Z,21.42
2022-08-14T01:27:25.233Z,21.32
2022-08-14T01:30:03.332Z,21.37
2022-08-14T01:32:37.402Z,21.27
2022-08-14T01:35:18.334Z,21.21
2022-08-14T01:37:56.158Z,21.16
2022-08-14T01:40:25.593Z,21.05
2022-08-14T01:42:59.878Z,21.11
2022-08-14T01:45:26.411Z,21.16
2022-08-14T01:48:03.463Z,21.18
2022-08-14T01:50:30.615Z,21.21
2022-08-14T01:53:01.220Z,21.20
2022-08-14T01:55:31.219Z,21.17
2022-08-14T01:58:18.212Z,21.14
2022-08-14T02:00:45.005Z,21.16
2022-08-14T02:03:16.161Z,21.13
2022-08-14T02:05:43.257Z,21.12
2022-08-14T02:08:10.694Z,21.07
2022-08-14T02:10:46.936Z,21.03
2022-08-14T02:13:17.412Z,20.97
2022-08-14T02:15:44.981Z,20.94
2022-08-14T02:18:15.291Z,20.94
2022-08-14T02:20:42.193Z,20.86
2022-08-14T02:23:09.145Z,20.82
2022-08-14T02:25:36.313Z,20.78
2022-08-14T02:28:25.584Z,20.75
2022-08-14T02:30:52.453Z,20.76
2022-08-14T02:33:19.342Z,20.80
2022-08-14T02:35:53.042Z,20.82
2022-08-14T02:38:30.338Z,20.78
2022-08-14T02:41:01.139Z,20.75
2022-08-14T02:43:36.412Z,20.75
2022-08-14T02:46:05.867Z,20.77
2022-08-14T02:49:01.830Z,20.85
2022-08-14T02:51:21.254Z,20.87
2022-08-14T02:53:49.343Z,20.91
2022-08-14T02:56:30.962Z,20.90
2022-08-14T02:59:08.217Z,20.93
2022-08-14T03:01:43.401Z,20.97
2022-08-14T03:04:20.558Z,20.96
2022-08-14T03:06:57.357Z,20.91
2022-08-14T03:09:42.380Z,20.89
2022-08-14T03:12:31.741Z,20.88
2022-08-14T03:15:02.678Z,20.91
2022-08-14T03:17:31.586Z,20.93
2022-08-14T03:20:07.726Z,20.94
2022-08-14T03:22:38.155Z,20.88
2022-08-14T03:25:08.523Z,20.82
2022-08-14T03:27:48.475Z,20.78
2022-08-14T03:30:23.678Z,20.88
2022-08-14T03:32:50.148Z,20.96
2022-08-14T03:35:18.199Z,20.97
2022-08-14T03:39:12.796Z,20.94
2022-08-14T03:40:31.050Z,21.01
2022-08-14T03:42:57.488Z,21.04
2022-08-14T03:45:34.464Z,21.07
2022-08-14T03:48:30.245Z,21.10
2022-08-14T03:50:57.913Z,21.02
2022-08-14T03:53:26.264Z,20.94
2022-08-14T03:55:56.065Z,20.88
2022-08-14T03:58:35.163Z,20.78
2022-08-14T04:01:04.717Z,20.80
2022-08-14T04:03:33.175Z,20.85
2022-08-14T04:06:04.784Z,20.88
2022-08-14T04:08:36.066Z,20.93
2022-08-14T04:11:02.790Z,20.95
2022-08-14T04:13:35.386Z,20.94
2022-08-14T04:16:06.898Z,20.91
2022-08-14T04:18:43.828Z,20.91
2022-08-14T04:21:12.387Z,20.92
2022-08-14T04:23:39.881Z,20.93
2022-08-14T04:26:14.215Z,21.00
2022-08-14T04:29:06.741Z,21.00
2022-08-14T04:32:58.211Z,20.97
2022-08-14T04:34:20.635Z,20.90
2022-08-14T04:37:08.867Z,20.91
2022-08-14T04:39:57.356Z,20.95
2022-08-14T04:42:47.241Z,20.80
2022-08-14T04:45:18.667Z,20.83
2022-08-14T04:48:03.714Z,20.87
2022-08-14T04:50:37.985Z,20.94
2022-08-14T04:53:12.919Z,20.97
2022-08-14T04:55:41.166Z,20.96
2022-08-14T04:58:09.526Z,20.97
2022-08-14T05:00:50.842Z,20.94
2022-08-14T05:03:20.950Z,21.02
2022-08-14T05:05:54.532Z,21.01
2022-08-14T05:08:31.691Z,21.00
2022-08-14T05:11:11.888Z,21.00
2022-08-14T05:14:08.265Z,21.07
2022-08-14T05:16:29.330Z,21.08
2022-08-14T05:19:24.664Z,21.17
2022-08-14T05:21:59.303Z,21.24
2022-08-14T05:24:29.321Z,21.25
2022-08-14T05:26:56.866Z,21.35
2022-08-14T05:29:26.306Z,21.45
2022-08-14T05:31:57.394Z,21.46
2022-08-14T05:34:31.716Z,21.59
2022-08-14T05:37:02.427Z,21.73
2022-08-14T05:39:29.932Z,21.71
2022-08-14T05:41:57.458Z,21.78
2022-08-14T05:44:27.890Z,21.99
2022-08-14T05:46:56.772Z,22.16
2022-08-14T05:49:23.292Z,22.28
2022-08-14T05:51:59.644Z,22.36
2022-08-14T05:54:28.734Z,22.48
2022-08-14T05:57:05.428Z,22.58
2022-08-14T05:59:39.119Z,22.59
2022-08-14T06:02:11.033Z,22.64
2022-08-14T06:04:39.022Z,22.74
2022-08-14T06:07:06.184Z,22.89
2022-08-14T06:09:35.919Z,23.07
2022-08-14T06:12:10.661Z,23.18
2022-08-14T06:14:39.225Z,23.22
2022-08-14T06:17:06.717Z,23.30
2022-08-14T06:19:33.295Z,23.35
2022-08-14T06:21:59.858Z,23.43
2022-08-14T06:24:27.132Z,23.63
2022-08-14T06:26:56.680Z,23.82
2022-08-14T06:29:32.457Z,23.99
2022-08-14T06:32:37.716Z,24.12
2022-08-14T06:35:02.915Z,24.19
2022-08-14T06:37:57.199Z,24.26
2022-08-14T06:40:29.667Z,24.41
2022-08-14T06:43:03.297Z,24.57
2022-08-14T06:45:35.081Z,24.82
2022-08-14T06:48:06.077Z,25.08
2022-08-14T06:50:39.038Z,25.20
2022-08-14T06:53:05.598Z,25.41
2022-08-14T06:55:32.231Z,25.64
2022-08-14T06:57:58.969Z,25.76
2022-08-14T07:00:30.590Z,25.90
2022-08-14T07:03:17.156Z,26.09
2022-08-14T07:05:58.052Z,26.24
2022-08-14T07:08:31.378Z,26.48
2022-08-14T07:11:03.858Z,26.68
2022-08-14T07:13:31.096Z,26.74
2022-08-14T07:15:58.890Z,26.90
2022-08-14T07:18:28.776Z,26.93
2022-08-14T07:20:56.404Z,27.02
2022-08-14T07:23:24.131Z,27.13
2022-08-14T07:25:58.256Z,27.14
2022-08-14T07:28:31.956Z,27.13
2022-08-14T07:31:05.172Z,27.31
2022-08-14T07:33:50.759Z,27.59
2022-08-14T07:36:30.112Z,27.77
2022-08-14T07:39:12.495Z,28.05
2022-08-14T07:41:42.475Z,28.15
2022-08-14T07:44:29.635Z,28.12
2022-08-14T07:46:57.751Z,28.30
2022-08-14T07:49:24.605Z,28.56
2022-08-14T07:51:51.155Z,28.69
2022-08-14T07:54:23.241Z,28.84
2022-08-14T07:57:00.157Z,29.03
2022-08-14T07:59:41.937Z,29.09
2022-08-14T08:02:19.498Z,29.13
2022-08-14T08:04:52.982Z,29.21
2022-08-14T08:07:22.148Z,29.08
2022-08-14T08:09:53.436Z,29.04
2022-08-14T08:12:24.947Z,29.12
2022-08-14T08:15:07.058Z,29.26
2022-08-14T08:17:42.361Z,29.30
2022-08-14T08:20:15.823Z,29.62
2022-08-14T08:22:56.006Z,29.57
2022-08-14T08:25:27.652Z,29.84
2022-08-14T08:27:58.404Z,29.95
2022-08-14T08:30:24.998Z,30.24
2022-08-14T08:32:53.540Z,30.41
2022-08-14T08:35:23.442Z,30.33
2022-08-14T08:37:53.708Z,30.44
2022-08-14T08:40:42.216Z,30.42
2022-08-14T08:43:29.773Z,30.43
2022-08-14T08:46:18.648Z,30.40
2022-08-14T08:51:30.935Z,30.18
2022-08-14T08:54:01.309Z,30.26
2022-08-14T08:56:41.350Z,30.20
2022-08-14T08:59:34.282Z,30.45
2022-08-14T09:02:10.151Z,30.41
2022-08-14T09:04:45.561Z,30.41
2022-08-14T09:07:20.204Z,30.38
2022-08-14T09:09:54.059Z,30.44
2022-08-14T09:12:26.794Z,30.56
2022-08-14T09:14:54.626Z,30.73
2022-08-14T09:17:25.660Z,30.72
2022-08-14T09:19:53.581Z,30.96
2022-08-14T09:22:35.825Z,30.97
2022-08-14T09:25:08.259Z,30.98
2022-08-14T09:27:37.967Z,30.94
2022-08-14T09:30:31.074Z,31.02
2022-08-14T09:33:06.089Z,30.86
2022-08-14T09:35:44.199Z,30.97
2022-08-14T09:38:28.278Z,31.02
2022-08-14T09:41:23.273Z,31.20
2022-08-14T09:44:06.300Z,31.25
2022-08-14T09:46:34.466Z,31.23
2022-08-14T09:49:06.067Z,31.15
2022-08-14T09:51:45.197Z,31.04
2022-08-14T09:54:23.369Z,31.22
2022-08-14T09:56:56.683Z,31.40
2022-08-14T09:59:27.994Z,31.45
2022-08-14T10:01:57.063Z,31.37
2022-08-14T10:04:35.984Z,31.24
2022-08-14T10:07:05.529Z,31.21
2022-08-14T10:09:34.596Z,31.25
2022-08-14T10:12:04.212Z,31.15
2022-08-14T10:14:36.576Z,31.24
2022-08-14T10:17:06.962Z,31.30
2022-08-14T10:19:36.567Z,31.21
2022-08-14T10:23:12.554Z,31.34
2022-08-14T10:24:57.550Z,31.32
2022-08-14T10:27:27.085Z,31.17
2022-08-14T10:30:00.887Z,31.36
2022-08-14T10:32:36.524Z,31.42
2022-08-14T10:35:16.474Z,31.29
2022-08-14T10:37:49.462Z,31.49
2022-08-14T10:40:38.855Z,31.56
2022-08-14T10:43:27.624Z,31.71
2022-08-14T10:46:58.902Z,31.91
2022-08-14T10:48:57.913Z,31.71
2022-08-14T10:51:26.266Z,31.66
2022-08-14T10:53:57.335Z,31.81
2022-08-14T10:56:35.126Z,31.71
2022-08-14T10:59:08.141Z,31.64
2022-08-14T11:01:38.388Z,31.94
2022-08-14T11:04:20.152Z,32.11
2022-08-14T11:06:53.423Z,32.02
2022-08-14T11:09:20.045Z,32.14
2022-08-14T11:11:55.573Z,32.23
2022-08-14T11:14:23.064Z,32.26
2022-08-14T11:16:53.903Z,32.37
2022-08-14T11:19:25.019Z,32.56
2022-08-14T11:21:56.074Z,32.33
2022-08-14T11:24:55.008Z,32.02
2022-08-14T11:27:19.502Z,31.82
2022-08-14T11:29:48.222Z,31.68
2022-08-14T11:32:21.887Z,31.75
2022-08-14T11:34:48.798Z,31.88
2022-08-14T11:37:23.593Z,32.00
2022-08-14T11:39:55.906Z,31.98
2022-08-14T11:42:58.231Z,32.16
2022-08-14T11:45:17.146Z,32.34
2022-08-14T11:48:10.661Z,32.72
2022-08-14T11:50:37.328Z,32.24
2022-08-14T11:53:07.096Z,32.50
2022-08-14T11:55:38.117Z,32.37
2022-08-14T11:58:09.424Z,32.28
2022-08-14T12:00:48.379Z,32.16
2022-08-14T12:03:17.804Z,32.25
2022-08-14T12:05:49.140Z,32.28
2022-08-14T12:08:16.150Z,32.45
2022-08-14T12:10:57.508Z,32.66
2022-08-14T12:13:30.913Z,32.85
2022-08-14T12:16:01.102Z,32.92
2022-08-14T12:18:39.432Z,33.01
2022-08-14T12:21:21.466Z,33.22
2022-08-14T12:24:01.870Z,33.52
2022-08-14T12:26:39.883Z,33.49
2022-08-14T12:29:10.245Z,32.96
2022-08-14T12:31:46.726Z,32.85
2022-08-14T12:34:20.351Z,33.29
2022-08-14T12:36:49.894Z,33.61
2022-08-14T12:39:23.873Z,33.76
2022-08-14T12:41:57.002Z,33.67
2022-08-14T12:44:39.107Z,33.38
2022-08-14T12:47:15.270Z,33.70
2022-08-14T12:49:53.377Z,33.00
2022-08-14T12:52:41.697Z,32.79
2022-08-14T12:55:20.944Z,32.85
2022-08-14T12:57:53.348Z,32.85
2022-08-14T13:00:23.974Z,32.65
2022-08-14T13:02:55.417Z,32.77
2022-08-14T13:05:31.169Z,33.09
2022-08-14T13:07:59.486Z,33.00
2022-08-14T13:10:51.516Z,33.07
2022-08-14T13:13:17.310Z,33.41
2022-08-14T13:15:45.805Z,33.40
2022-08-14T13:18:14.544Z,33.12
2022-08-14T13:20:51.847Z,33.07
2022-08-14T13:23:32.168Z,33.15
2022-08-14T13:25:59.547Z,33.65
2022-08-14T13:28:32.996Z,33.25
2022-08-14T13:31:10.935Z,33.11
2022-08-14T13:33:38.062Z,33.33
2022-08-14T13:36:08.811Z,33.18
2022-08-14T13:38:35.315Z,33.07
2022-08-14T13:41:02.778Z,33.16
2022-08-14T13:43:31.658Z,33.36
2022-08-14T13:46:03.861Z,33.21
2022-08-14T13:48:33.071Z,33.09
2022-08-14T13:51:05.841Z,33.79
2022-08-14T13:53:52.602Z,33.64
2022-08-14T13:56:36.340Z,33.37
2022-08-14T13:59:04.601Z,33.57
2022-08-14T14:01:42.860Z,33.48
2022-08-14T14:04:19.279Z,33.39
2022-08-14T14:06:48.820Z,33.02
2022-08-14T14:09:20.749Z,33.02
2022-08-14T14:11:47.800Z,33.24
2022-08-14T14:14:44.832Z,33.47
2022-08-14T14:17:12.431Z,33.56
2022-08-14T14:19:41.335Z,33.78
2022-08-14T14:22:09.766Z,34.02
2022-08-14T14:24:36.729Z,33.87
2022-08-14T14:27:30.065Z,33.47
2022-08-14T14:29:55.721Z,33.74
2022-08-14T14:32:32.194Z,34.03
2022-08-14T14:35:02.706Z,33.60
2022-08-14T14:37:30.567Z,33.59
2022-08-14T14:40:54.291Z,33.46
2022-08-14T14:42:48.873Z,33.58
2022-08-14T14:45:22.185Z,33.41
2022-08-14T14:47:59.409Z,33.17
2022-08-14T14:50:26.501Z,33.33
2022-08-14T14:52:54.008Z,33.13
2022-08-14T14:55:59.562Z,32.97
2022-08-14T14:58:30.650Z,33.27
2022-08-14T15:01:03.516Z,33.27
2022-08-14T15:03:36.743Z,33.39
2022-08-14T15:06:03.945Z,33.26
2022-08-14T15:08:56.487Z,33.23
2022-08-14T15:11:19.847Z,33.01
2022-08-14T15:13:53.350Z,32.97
2022-08-14T15:16:20.461Z,32.96
2022-08-14T15:18:49.198Z,33.15
2022-08-14T15:21:15.956Z,33.74
2022-08-14T15:23:44.843Z,33.90
2022-08-14T15:26:30.870Z,33.71
2022-08-14T15:29:05.823Z,33.31
2022-08-14T15:31:36.270Z,33.33
2022-08-14T15:34:44.468Z,33.42
2022-08-14T15:37:02.000Z,33.17
2022-08-14T15:39:35.899Z,33.17
2022-08-14T15:42:15.643Z,33.16
2022-08-14T15:44:56.595Z,33.22
2022-08-14T15:47:28.412Z,32.99
2022-08-14T15:50:00.669Z,33.00
2022-08-14T15:52:32.688Z,32.73
2022-08-14T15:55:09.548Z,32.87
2022-08-14T15:57:36.971Z,33.02
2022-08-14T16:00:43.355Z,32.82
2022-08-14T16:03:15.621Z,32.88
2022-08-14T16:05:43.382Z,32.74
2022-08-14T16:08:27.023Z,32.71
2022-08-14T16:10:56.434Z,32.67
2022-08-14T16:13:41.431Z,32.63
2022-08-14T16:16:47.094Z,32.59
2022-08-14T16:19:15.889Z,32.54
2022-08-14T16:22:02.752Z,32.45
2022-08-14T16:24:33.236Z,32.45
2022-08-14T16:27:01.470Z,32.57
2022-08-14T16:29:31.038Z,32.60
2022-08-14T16:32:01.741Z,32.52
2022-08-14T16:34:50.104Z,32.44
2022-08-14T16:37:21.125Z,32.47
2022-08-14T16:39:49.432Z,32.52
2022-08-14T16:42:39.139Z,32.51
2022-08-14T16:45:11.490Z,32.44
2022-08-14T16:47:38.207Z,32.39
2022-08-14T16:50:10.472Z,32.47
2022-08-14T16:52:44.172Z,32.24
2022-08-14T16:55:13.962Z,32.19
2022-08-14T16:57:49.997Z,32.20
2022-08-14T17:00:28.508Z,32.29
2022-08-14T17:03:04.702Z,32.20
2022-08-14T17:05:41.598Z,32.16
2022-08-14T17:08:31.566Z,32.13
2022-08-14T17:10:57.221Z,32.06
2022-08-14T17:13:27.441Z,32.02
2022-08-14T17:16:25.439Z,32.05
2022-08-14T17:19:00.846Z,32.12
2022-08-14T17:21:38.214Z,32.17
2022-08-14T17:24:58.317Z,32.00
2022-08-14T17:27:04.474Z,31.86
2022-08-14T17:29:34.820Z,31.90
2022-08-14T17:32:22.480Z,31.80
2022-08-14T17:34:57.837Z,31.75
2022-08-14T17:37:34.319Z,31.75
2022-08-14T17:40:15.113Z,31.75
2022-08-14T17:42:45.684Z,31.70
2022-08-14T17:45:26.782Z,31.66
2022-08-14T17:47:56.958Z,31.59
2022-08-14T17:50:58.745Z,31.54
2022-08-14T17:53:25.722Z,31.40
2022-08-14T17:56:02.897Z,31.35
2022-08-14T17:58:38.725Z,31.21
2022-08-14T18:01:13.294Z,31.06
2022-08-14T18:03:50.180Z,30.91
2022-08-14T18:06:39.399Z,30.85
2022-08-14T18:09:24.639Z,30.73
2022-08-14T18:11:55.149Z,30.56
2022-08-14T18:14:32.251Z,30.46
2022-08-14T18:17:01.034Z,30.35
2022-08-14T18:19:30.021Z,30.26
2022-08-14T18:21:58.989Z,30.17
2022-08-14T18:24:30.322Z,30.01
2022-08-14T18:27:08.976Z,29.86
2022-08-14T18:29:42.702Z,29.69
2022-08-14T18:32:27.639Z,29.55
2022-08-14T18:35:11.039Z,29.45
2022-08-14T18:37:41.187Z,29.32
2022-08-14T18:40:17.637Z,29.17
2022-08-14T18:42:59.232Z,29.03
2022-08-14T18:45:32.996Z,28.91
2022-08-14T18:48:18.614Z,28.78
2022-08-14T18:51:02.269Z,28.73
2022-08-14T18:53:34.398Z,28.66
2022-08-14T18:56:09.636Z,28.55
2022-08-14T18:58:48.448Z,28.38
2022-08-14T19:01:26.520Z,28.26
2022-08-14T19:03:57.458Z,28.19
2022-08-14T19:06:42.821Z,28.34
2022-08-14T19:09:50.586Z,28.38
2022-08-14T19:12:56.536Z,28.51
2022-08-14T19:15:27.294Z,28.48
2022-08-14T19:18:13.881Z,28.53
2022-08-14T19:21:13.338Z,28.50
2022-08-14T19:23:42.688Z,28.44
2022-08-14T19:26:36.254Z,28.46
2022-08-14T19:29:37.724Z,28.25
2022-08-14T19:32:38.933Z,28.29
2022-08-14T19:35:49.645Z,28.24
2022-08-14T19:38:47.837Z,28.17
2022-08-14T19:41:21.037Z,28.06
2022-08-14T19:43:55.729Z,27.87
2022-08-14T19:46:39.114Z,27.84
2022-08-14T19:49:23.035Z,27.80
2022-08-14T19:51:50.121Z,27.86
2022-08-14T19:54:17.115Z,27.68
2022-08-14T19:56:45.709Z,27.78
2022-08-14T19:59:19.134Z,27.63
2022-08-14T20:01:51.132Z,27.56
2022-08-14T20:04:46.179Z,27.65
2022-08-14T20:07:27.394Z,27.52
2022-08-14T20:11:04.857Z,27.52
2022-08-14T20:13:14.005Z,27.47
2022-08-14T20:15:47.673Z,27.46
2022-08-14T20:18:45.873Z,27.43
2022-08-14T20:21:05.147Z,27.34
2022-08-14T20:23:38.463Z,27.18
2022-08-14T20:26:31.521Z,27.22
2022-08-14T20:29:04.639Z,27.23
2022-08-14T20:31:37.633Z,27.20
2022-08-14T20:34:18.957Z,27.19
2022-08-14T20:37:09.808Z,27.22
2022-08-14T20:39:54.407Z,27.10
2022-08-14T20:42:43.805Z,27.07
2022-08-14T20:45:21.480Z,27.09
2022-08-14T20:47:56.449Z,27.08
2022-08-14T20:50:28.749Z,27.17
2022-08-14T20:52:57.334Z,27.21
2022-08-14T20:55:27.585Z,27.17
2022-08-14T20:57:58.977Z,27.10
2022-08-14T21:00:51.672Z,27.06
2022-08-14T21:03:56.824Z,27.12
2022-08-14T21:07:22.899Z,27.09
2022-08-14T21:10:04.552Z,26.96
2022-08-14T21:12:33.688Z,26.86
2022-08-14T21:14:59.623Z,26.77
2022-08-14T21:17:27.124Z,26.68
2022-08-14T21:19:53.837Z,26.53
2022-08-14T21:22:20.271Z,26.29
2022-08-14T21:24:47.480Z,26.27
2022-08-14T21:27:21.986Z,26.29
2022-08-14T21:29:56.052Z,26.28
2022-08-14T21:32:35.045Z,26.28
2022-08-14T21:35:09.064Z,26.28
2022-08-14T21:37:43.657Z,26.28
2022-08-14T21:40:39.853Z,26.19
2022-08-14T21:43:00.950Z,26.12
2022-08-14T21:45:27.692Z,26.07
2022-08-14T21:47:56.339Z,26.05
2022-08-14T21:51:00.024Z,26.00
2022-08-14T21:53:10.527Z,25.90
2022-08-14T21:55:37.354Z,25.77
2022-08-14T21:58:53.150Z,25.74
2022-08-14T22:00:51.523Z,25.59
2022-08-14T22:03:23.425Z,25.54
2022-08-14T22:05:55.886Z,25.43
2022-08-14T22:08:26.547Z,25.26
2022-08-14T22:10:54.958Z,25.18
2022-08-14T22:13:24.618Z,25.19
2022-08-14T22:15:54.344Z,25.20
2022-08-14T22:18:25.467Z,25.19
2022-08-14T22:20:53.893Z,25.19
2022-08-14T22:23:23.810Z,25.05
2022-08-14T22:25:51.182Z,25.08
2022-08-14T22:28:25.168Z,25.11
2022-08-14T22:30:54.906Z,25.06
2022-08-14T22:33:26.600Z,24.99
2022-08-14T22:35:57.746Z,24.91
2022-08-14T22:38:36.417Z,24.83
2022-08-14T22:41:25.839Z,24.75
2022-08-14T22:43:53.675Z,24.60
2022-08-14T22:46:21.200Z,24.53
2022-08-14T22:48:49.174Z,24.52
2022-08-14T22:51:17.992Z,24.47
2022-08-14T22:53:48.455Z,24.34
2022-08-14T22:56:20.133Z,24.21
2022-08-14T22:58:53.857Z,24.10
2022-08-14T23:01:57.105Z,24.04
2022-08-14T23:04:35.308Z,23.96
2022-08-14T23:07:21.967Z,23.91
2022-08-14T23:09:57.614Z,23.64
2022-08-14T23:12:47.415Z,23.73
2022-08-14T23:15:23.592Z,23.78
2022-08-14T23:17:51.063Z,23.78
2022-08-14T23:20:21.266Z,23.83
2022-08-14T23:22:52.380Z,23.74
2022-08-14T23:25:56.903Z,23.69
2022-08-14T23:28:34.417Z,23.66
2022-08-14T23:30:55.347Z,23.55
2022-08-14T23:33:21.895Z,23.52
2022-08-14T23:35:58.846Z,23.45
2022-08-14T23:38:31.059Z,23.26
2022-08-14T23:40:58.804Z,23.27
2022-08-14T23:43:28.270Z,23.15
2022-08-14T23:45:57.854Z,23.16
2022-08-14T23:48:27.983Z,23.36
2022-08-14T23:50:55.155Z,23.26
2022-08-14T23:53:47.428Z,23.36
2022-08-14T23:56:30.412Z,23.37
2022-08-14T23:59:00.970Z,23.37
